Swatara, Minnesota
Current Conditions -  °F | °C
As of 4:15 AM on Thursday 29 Jan 2015 (Local Time) from KGPZ Reporting Station
Overcast Overcast  
Wind Chill: 13°   Ceiling: 1000
Heat Index: 27°   Visibility: 8mi
Dew Point: 25°   Wind: 18mph
Humidity: 93%   Direction: 320°NW
Pressure: 29.96"   Gusts: 26mph
Location:  46.9°N, 93.67°W
Report Text: KGPZ 291015Z AUTO 32016G23KT 8SM OVC010 M03/M04 A2996 RMK AO1
Loading
Personal Weather Stations






























Interactive Weather Map New forecast layout! Learn more

10-Day Weather Forecast

Advertisements
Track Severe Weather on mobile